x

Santa Monica Basin - 33nm Wsw Of Santa Monica, Ca (46025) Wave Buoy

2:50pm - Wed 1st Apr 2015 All times are PDT. -7 hours from GMT.

  • Sig Wave height 4.6ft
  • Swell Direction
  • Peak Period 11s
  • Average Period 7s
  • Wind
    9mph, 11mph gusts
  • Sea Temp 64°f
  • Air Temp 62°f
  • Sea Pressure 1014.2mb
  • Santa Monica Basin - 33nm Wsw Of Santa Monica, Ca
  • Santa Monica Basin - 33nm Wsw Of Santa Monica, Ca

More Historic Weather Station data

Upgrade to MSW Pro to gain access to the past 30 days of data for over 8000 Wavebouys and Weather Stations around the globe.

Join Pro

Comparision Forecast

View Surf forecast
   
Wed 04/01 2:50pm 4.5ft 11s 7s 9 11 mph 1014.2mb 64f 62f
1:50pm 5ft 13s 7s 9 11 mph 1015.1mb 64f 62f
12:50pm 5ft 13s 7s 7 9 mph 1016.1mb 65f 62f
11:50am 4.5ft 13s 7s 4 7 mph 1016.9mb 66f 62f
10:50am 4.5ft 14s 7s 2 4 mph 1016.6mb 65f 63f
9:50am 4.5ft 13s 7s  -  2 mph 1016.6mb 64f 63f
8:50am 4.5ft 14s 6s 2 4 mph 1016.2mb 64f 62f
7:50am 4.5ft 11s 6s 4 7 mph 1015.7mb 64f 61f
6:50am 4.5ft 12s 6s 7 9 mph 1015mb 64f 61f
5:50am 5ft 7s 6s 7 9 mph 1014.2mb 64f 62f
4:50am 5ft 12s 6s 4 7 mph 1014.5mb 64f 61f
3:50am 5ft 14s 7s 4
mph
1014.7mb 64f 62f
2:50am 5ft 7s 7s 2 4 mph 1015.1mb 64f 62f
1:50am 5ft 14s 7s 4 7 mph 1015.3mb 64f 62f
12:50am 5ft 10s 7s 7
mph
1015.4mb 64f 62f
Tue 03/31 11:50pm 5ft 14s 7s 7
mph
1015.1mb 65f 62f
10:50pm 5ft 13s 7s 4 7 mph 1014.8mb 65f 62f
9:50pm 5.5ft 15s 7s 11 13 mph 1014.7mb 65f 63f
8:50pm 5ft 15s 7s 9 11 mph 1014.2mb 65f 63f
7:50pm 4.5ft 13s 7s 7 11 mph 1013.7mb 65f 64f
6:50pm 5ft 15s 7s 4 7 mph 1013.6mb 65f 63f
5:50pm 4.5ft 13s 7s 7 9 mph 1013.7mb 65f 63f
4:50pm 4.5ft 13s 7s 4 7 mph 1014.4mb 65f 62f
3:50pm 4.5ft 15s 7s 4 7 mph 1014.8mb 66f 61f
2:50pm 4.5ft 13s 8s 7 11 mph 1015.7mb 67f 61f
1:50pm 4ft 15s 8s 2 4 mph 1016.3mb 67f 61f
12:50pm 4.5ft 15s 8s 4
mph
1017.1mb 65f 61f
11:50am 4.5ft 15s 8s 2 4 mph 1017.5mb 64f 60f
10:50am 4.5ft 12s 8s 2 4 mph 1017.4mb 64f 60f
9:50am 4.5ft 13s 8s  -  2 mph 1017mb 64f 60f
8:50am 4.5ft 15s 8s 4 7 mph 1016.2mb 63f 59f
7:50am 5ft 15s 8s 4 9 mph 1015.8mb 64f 59f
6:50am 4.5ft 15s 7s 7 11 mph 1015.1mb 64f 59f
5:50am 4.5ft 15s 8s 4 11 mph 1014.8mb 64f 59f
4:50am 4.5ft 15s 7s 7 9 mph 1014.9mb 64f 58f
3:50am 4ft 16s 7s 9 13 mph 1014.9mb 64f 58f
2:50am 4ft 16s 7s 7 11 mph 1015.4mb 64f 59f
1:50am 4.5ft 16s 7s 4 7 mph 1015.8mb 64f 60f
12:50am 4ft 16s 7s 4
mph
1015.8mb 64f 60f
Mon 03/30 11:50pm 4ft 16s 8s 4 7 mph 1015.9mb 64f 60f
10:50pm 4ft 16s 8s 2 4 mph 1016.1mb 64f 60f
9:50pm 4ft 16s 8s 2 4 mph 1016.1mb 64f 59f
8:50pm 4ft 16s 8s 4 9 mph 1015.7mb 64f 59f
7:50pm 4ft 15s 8s 9 13 mph 1014.7mb 64f 58f
6:50pm 3.5ft 16s 7s 11 16 mph 1014.5mb 64f 59f
5:50pm 4.5ft 16s 8s 11 13 mph 1014.6mb 64f 60f
4:50pm 3.5ft 16s 8s 11 13 mph 1015mb 64f 61f
3:50pm 4.5ft 16s 9s 9 11 mph 1015.4mb 65f 60f
2:50pm 4.5ft 15s 9s 9
mph
1016.2mb 65f 60f
1:50pm 4ft 16s 9s 7 9 mph 1016.9mb 66f 60f
12:50pm 4ft 16s 9s 4 7 mph 1017.5mb 66f 60f
11:50am 4ft 16s 9s 2 4 mph 1017.6mb 65f 59f
10:50am 4.5ft 16s 10s 4 7 mph 1017.6mb 64f 59f
9:50am 4.5ft 16s 9s  -  2 mph 1017.4mb 64f 58f
8:50am 4.5ft 16s 10s 4 7 mph 1017.1mb 64f 58f
7:50am 4.5ft 16s 10s  -  2 mph 1016.8mb 64f 58f
6:50am 4.5ft 16s 9s 2 4 mph 1016.4mb 64f 59f
5:50am 4.5ft 16s 9s 2 7 mph 1016mb 64f 59f
4:50am 4.5ft 16s 9s 2 4 mph 1015.8mb 64f 59f
3:50am 4.5ft 16s 10s 4 7 mph 1015.9mb 64f 59f
2:50am 4ft 16s 10s 4 9 mph 1016mb 64f 59f
1:50am 4ft 16s 9s 4 7 mph 1016.3mb 64f 60f
12:50am 4.5ft 17s 10s 2 4 mph 1016.5mb 64f 60f
Sun 03/29 11:50pm 5ft 16s 11s 2
mph
1016.5mb 64f 60f
10:50pm 3.5ft 15s 9s 2 4 mph 1016.6mb 64f 61f
9:50pm 4.5ft 17s 10s 7 9 mph 1016.6mb 65f 62f
8:50pm 4ft 16s 10s 4 7 mph 1016.1mb 65f 62f
7:50pm 4.5ft 17s 10s 4 7 mph 1015.4mb 65f 62f
6:50pm 4.5ft 16s 10s 7 9 mph 1015.2mb 66f 63f
5:50pm 4ft 16s 8s 7 9 mph 1015.1mb 66f 63f
4:50pm 4ft 17s 9s 4 7 mph 1015.2mb 67f 62f
3:50pm 4ft 17s 9s 2 7 mph 1015.7mb 67f 62f
2:50pm 4.5ft 17s 9s 4 7 mph 1016.4mb 66f 61f
1:50pm 4ft 17s 10s 2 4 mph 1017mb 66f 60f
12:50pm 4ft 17s 9s 4 7 mph 1017.7mb 65f 60f
11:50am 3.5ft 17s 9s 2 7 mph 1018.5mb 63f 60f
10:50am 3.5ft 16s 9s 9 11 mph 1018.4mb 63f 60f
9:50am 3.5ft 16s 9s 7 11 mph 1018.1mb 63f 59f
8:50am 4ft 17s 9s 4 7 mph 1017.9mb 63f 58f
7:50am 4ft 17s 9s 7 9 mph 1017.6mb 63f 59f
6:50am 4ft 17s 9s 7 11 mph 1017mb 63f 60f
5:50am 3.5ft 13s 8s 4 7 mph 1016.8mb 63f 60f
4:50am 3.5ft 17s 8s 2 4 mph 1016.7mb 63f 60f
3:50am 3.5ft 16s 8s 4 7 mph 1016.9mb 64f 61f
2:50am 4ft 16s 8s 4 7 mph 1016.8mb 64f 61f
1:50am 3.5ft 17s 8s 7
mph
1017.2mb 64f 61f
12:50am 4ft 17s 8s 2
mph
1017.5mb 64f 61f
Sat 03/28 11:50pm 3.5ft 17s 8s 4
mph
1017.6mb 64f 61f